sensor_id;sensor_type;location;lat;lon;timestamp;pressure;altitude;pressure_sealevel;temperature;humidity
36828;BME280;22766;48.042;11.192;2023-12-04T00:00:33;95112.75;;;-12.64;100.00
36828;BME280;22766;48.042;11.192;2023-12-04T00:03:00;95112.69;;;-12.58;100.00
36828;BME280;22766;48.042;11.192;2023-12-04T00:05:27;95110.28;;;-12.69;100.00
36828;BME280;22766;48.042;11.192;2023-12-04T00:07:54;95100.28;;;-12.60;100.00
36828;BME280;22766;48.042;11.192;2023-12-04T00:10:21;95095.19;;;-12.49;100.00
36828;BME280;22766;48.042;11.192;2023-12-04T00:12:49;95093.50;;;-12.47;100.00
36828;BME280;22766;48.042;11.192;2023-12-04T00:15:17;95093.34;;;-12.32;100.00
36828;BME280;22766;48.042;11.192;2023-12-04T00:17:44;95099.25;;;-12.40;100.00
36828;BME280;22766;48.042;11.192;2023-12-04T00:20:11;95095.22;;;-12.51;100.00
36828;BME280;22766;48.042;11.192;2023-12-04T00:22:38;95095.31;;;-12.61;100.00
36828;BME280;22766;48.042;11.192;2023-12-04T00:25:06;95091.88;;;-12.50;100.00
36828;BME280;22766;48.042;11.192;2023-12-04T00:27:33;95087.78;;;-12.52;100.00
36828;BME280;22766;48.042;11.192;2023-12-04T00:30:00;95081.22;;;-12.61;100.00
36828;BME280;22766;48.042;11.192;2023-12-04T00:32:30;95083.84;;;-12.73;100.00
36828;BME280;22766;48.042;11.192;2023-12-04T00:34:57;95081.28;;;-12.68;100.00
36828;BME280;22766;48.042;11.192;2023-12-04T00:37:26;95081.13;;;-12.53;100.00
36828;BME280;22766;48.042;11.192;2023-12-04T00:39:53;95074.47;;;-12.51;100.00
36828;BME280;22766;48.042;11.192;2023-12-04T00:42:19;95076.19;;;-12.56;100.00
36828;BME280;22766;48.042;11.192;2023-12-04T00:44:46;95082.03;;;-12.59;100.00
36828;BME280;22766;48.042;11.192;2023-12-04T00:47:13;95073.78;;;-12.62;100.00
36828;BME280;22766;48.042;11.192;2023-12-04T00:49:40;95067.09;;;-12.57;100.00
36828;BME280;22766;48.042;11.192;2023-12-04T00:52:07;95071.91;;;-12.42;100.00
36828;BME280;22766;48.042;11.192;2023-12-04T00:54:34;95067.72;;;-12.37;100.00
36828;BME280;22766;48.042;11.192;2023-12-04T00:57:00;95063.47;;;-12.29;100.00
36828;BME280;22766;48.042;11.192;2023-12-04T00:59:27;95067.41;;;-12.11;100.00
36828;BME280;22766;48.042;11.192;2023-12-04T01:01:54;95068.13;;;-12.03;100.00
36828;BME280;22766;48.042;11.192;2023-12-04T01:04:21;95064.88;;;-12.08;100.00
36828;BME280;22766;48.042;11.192;2023-12-04T01:06:48;95066.84;;;-12.33;100.00
36828;BME280;22766;48.042;11.192;2023-12-04T01:09:15;95065.41;;;-12.54;100.00
36828;BME280;22766;48.042;11.192;2023-12-04T01:11:41;95067.22;;;-12.69;100.00
36828;BME280;22766;48.042;11.192;2023-12-04T01:14:08;95068.09;;;-12.76;100.00
36828;BME280;22766;48.042;11.192;2023-12-04T01:16:35;95060.66;;;-12.76;100.00
36828;BME280;22766;48.042;11.192;2023-12-04T01:19:02;95063.88;;;-12.65;100.00
36828;BME280;22766;48.042;11.192;2023-12-04T01:21:29;95055.59;;;-12.67;100.00
36828;BME280;22766;48.042;11.192;2023-12-04T01:23:57;95051.44;;;-12.65;100.00
36828;BME280;22766;48.042;11.192;2023-12-04T01:26:24;95048.97;;;-12.65;100.00
36828;BME280;22766;48.042;11.192;2023-12-04T01:28:50;95048.94;;;-12.67;100.00
36828;BME280;22766;48.042;11.192;2023-12-04T01:31:17;95053.84;;;-12.59;100.00
36828;BME280;22766;48.042;11.192;2023-12-04T01:33:44;95038.88;;;-12.53;100.00
36828;BME280;22766;48.042;11.192;2023-12-04T01:36:11;95039.78;;;-12.60;100.00
36828;BME280;22766;48.042;11.192;2023-12-04T01:38:38;95026.69;;;-12.76;100.00
36828;BME280;22766;48.042;11.192;2023-12-04T01:41:05;95029.22;;;-12.80;100.00
36828;BME280;22766;48.042;11.192;2023-12-04T01:43:32;95030.84;;;-12.78;100.00
36828;BME280;22766;48.042;11.192;2023-12-04T01:45:59;95024.16;;;-12.71;100.00
36828;BME280;22766;48.042;11.192;2023-12-04T01:48:28;95020.56;;;-12.48;100.00
36828;BME280;22766;48.042;11.192;2023-12-04T01:50:57;95018.78;;;-12.38;100.00
36828;BME280;22766;48.042;11.192;2023-12-04T01:53:24;95018.00;;;-12.41;100.00
36828;BME280;22766;48.042;11.192;2023-12-04T01:55:51;95009.03;;;-12.53;100.00
36828;BME280;22766;48.042;11.192;2023-12-04T01:58:18;95005.97;;;-12.75;100.00
36828;BME280;22766;48.042;11.192;2023-12-04T02:00:46;95002.75;;;-12.83;100.00
36828;BME280;22766;48.042;11.192;2023-12-04T02:03:13;94994.53;;;-12.88;100.00
36828;BME280;22766;48.042;11.192;2023-12-04T02:05:44;94993.63;;;-12.82;100.00
36828;BME280;22766;48.042;11.192;2023-12-04T02:08:10;94988.47;;;-12.69;100.00
36828;BME280;22766;48.042;11.192;2023-12-04T02:10:37;94979.25;;;-12.59;100.00
36828;BME280;22766;48.042;11.192;2023-12-04T02:13:06;94977.50;;;-12.51;100.00
36828;BME280;22766;48.042;11.192;2023-12-04T02:15:33;94965.09;;;-12.51;100.00
36828;BME280;22766;48.042;11.192;2023-12-04T02:18:03;94964.22;;;-12.47;100.00
36828;BME280;22766;48.042;11.192;2023-12-04T02:20:34;94962.47;;;-12.42;100.00
36828;BME280;22766;48.042;11.192;2023-12-04T02:23:02;94968.19;;;-12.34;100.00
36828;BME280;22766;48.042;11.192;2023-12-04T02:25:29;94968.06;;;-12.25;100.00
36828;BME280;22766;48.042;11.192;2023-12-04T02:28:05;94958.09;;;-12.22;100.00
36828;BME280;22766;48.042;11.192;2023-12-04T02:30:34;94956.69;;;-12.42;100.00
36828;BME280;22766;48.042;11.192;2023-12-04T02:33:05;94957.00;;;-12.65;100.00
36828;BME280;22766;48.042;11.192;2023-12-04T02:35:34;94969.66;;;-12.86;100.00
36828;BME280;22766;48.042;11.192;2023-12-04T02:38:02;94974.72;;;-12.97;100.00
36828;BME280;22766;48.042;11.192;2023-12-04T02:40:29;94975.59;;;-13.02;100.00
36828;BME280;22766;48.042;11.192;2023-12-04T02:42:56;94962.47;;;-13.10;100.00
36828;BME280;22766;48.042;11.192;2023-12-04T02:45:23;94959.41;;;-13.35;100.00
36828;BME280;22766;48.042;11.192;2023-12-04T02:47:50;94956.22;;;-13.49;100.00
36828;BME280;22766;48.042;11.192;2023-12-04T02:50:17;94956.25;;;-13.54;100.00
36828;BME280;22766;48.042;11.192;2023-12-04T02:52:44;94952.13;;;-13.53;100.00
36828;BME280;22766;48.042;11.192;2023-12-04T02:55:10;94947.88;;;-13.42;100.00
36828;BME280;22766;48.042;11.192;2023-12-04T02:57:37;94941.16;;;-13.31;100.00
36828;BME280;22766;48.042;11.192;2023-12-04T03:00:04;94936.97;;;-13.26;100.00
36828;BME280;22766;48.042;11.192;2023-12-04T03:02:32;94933.72;;;-13.32;100.00
36828;BME280;22766;48.042;11.192;2023-12-04T03:04:59;94932.16;;;-13.42;100.00
36828;BME280;22766;48.042;11.192;2023-12-04T03:07:26;94928.78;;;-13.34;100.00
36828;BME280;22766;48.042;11.192;2023-12-04T03:09:54;94926.34;;;-13.40;100.00
36828;BME280;22766;48.042;11.192;2023-12-04T03:12:20;94917.41;;;-13.55;100.00
36828;BME280;22766;48.042;11.192;2023-12-04T03:14:47;94925.63;;;-13.50;100.00
36828;BME280;22766;48.042;11.192;2023-12-04T03:17:14;94927.78;;;-13.19;100.00
36828;BME280;22766;48.042;11.192;2023-12-04T03:19:41;94919.44;;;-13.11;100.00
36828;BME280;22766;48.042;11.192;2023-12-04T03:22:08;94919.41;;;-13.08;100.00
36828;BME280;22766;48.042;11.192;2023-12-04T03:24:35;94906.25;;;-13.14;100.00
36828;BME280;22766;48.042;11.192;2023-12-04T03:27:02;94902.06;;;-13.14;100.00
36828;BME280;22766;48.042;11.192;2023-12-04T03:29:29;94897.31;;;-13.32;100.00
36828;BME280;22766;48.042;11.192;2023-12-04T03:31:56;94899.00;;;-13.37;100.00
36828;BME280;22766;48.042;11.192;2023-12-04T03:34:22;94897.44;;;-13.44;100.00
36828;BME280;22766;48.042;11.192;2023-12-04T03:36:49;94890.84;;;-13.48;100.00
36828;BME280;22766;48.042;11.192;2023-12-04T03:39:16;94896.59;;;-13.44;100.00
36828;BME280;22766;48.042;11.192;2023-12-04T03:41:43;94889.84;;;-13.30;100.00
36828;BME280;22766;48.042;11.192;2023-12-04T03:44:10;94894.66;;;-13.17;100.00
36828;BME280;22766;48.042;11.192;2023-12-04T03:46:37;94895.56;;;-13.22;100.00
36828;BME280;22766;48.042;11.192;2023-12-04T03:49:05;94891.56;;;-13.38;100.00
36828;BME280;22766;48.042;11.192;2023-12-04T03:51:32;94892.34;;;-13.32;100.00
36828;BME280;22766;48.042;11.192;2023-12-04T03:53:58;94891.41;;;-13.22;100.00
36828;BME280;22766;48.042;11.192;2023-12-04T03:56:25;94890.34;;;-13.03;100.00
36828;BME280;22766;48.042;11.192;2023-12-04T03:58:52;94894.38;;;-12.94;100.00
36828;BME280;22766;48.042;11.192;2023-12-04T04:01:18;94889.34;;;-12.90;100.00
36828;BME280;22766;48.042;11.192;2023-12-04T04:03:45;94891.94;;;-12.99;100.00
36828;BME280;22766;48.042;11.192;2023-12-04T04:06:12;94892.88;;;-13.06;100.00
36828;BME280;22766;48.042;11.192;2023-12-04T04:08:39;94894.59;;;-13.11;100.00
36828;BME280;22766;48.042;11.192;2023-12-04T04:11:06;94894.50;;;-13.03;100.00
36828;BME280;22766;48.042;11.192;2023-12-04T04:13:33;94896.19;;;-13.05;100.00
36828;BME280;22766;48.042;11.192;2023-12-04T04:16:00;94893.56;;;-12.96;100.00
36828;BME280;22766;48.042;11.192;2023-12-04T04:18:27;94886.88;;;-12.90;100.00
36828;BME280;22766;48.042;11.192;2023-12-04T04:20:54;94885.94;;;-12.83;100.00
36828;BME280;22766;48.042;11.192;2023-12-04T04:23:21;94880.53;;;-13.12;100.00
36828;BME280;22766;48.042;11.192;2023-12-04T04:25:47;94875.72;;;-13.25;100.00
36828;BME280;22766;48.042;11.192;2023-12-04T04:28:15;94870.00;;;-13.35;100.00
36828;BME280;22766;48.042;11.192;2023-12-04T04:30:42;94868.31;;;-13.30;100.00
36828;BME280;22766;48.042;11.192;2023-12-04T04:33:09;94862.41;;;-13.18;100.00
36828;BME280;22766;48.042;11.192;2023-12-04T04:35:36;94852.47;;;-13.20;100.00
36828;BME280;22766;48.042;11.192;2023-12-04T04:38:04;94843.19;;;-13.06;100.00
36828;BME280;22766;48.042;11.192;2023-12-04T04:40:30;94842.97;;;-12.91;100.00
36828;BME280;22766;48.042;11.192;2023-12-04T04:42:58;94834.41;;;-12.70;100.00
36828;BME280;22766;48.042;11.192;2023-12-04T04:45:25;94829.97;;;-12.48;100.00
36828;BME280;22766;48.042;11.192;2023-12-04T04:47:51;94831.38;;;-12.32;100.00
36828;BME280;22766;48.042;11.192;2023-12-04T04:50:18;94838.75;;;-12.26;100.00
36828;BME280;22766;48.042;11.192;2023-12-04T04:52:45;94837.88;;;-12.24;100.00
36828;BME280;22766;48.042;11.192;2023-12-04T04:55:12;94839.53;;;-12.21;100.00
36828;BME280;22766;48.042;11.192;2023-12-04T04:57:59;94848.56;;;-12.17;100.00
36828;BME280;22766;48.042;11.192;2023-12-04T05:00:26;94845.22;;;-12.16;100.00
36828;BME280;22766;48.042;11.192;2023-12-04T05:02:53;94832.75;;;-12.15;100.00
36828;BME280;22766;48.042;11.192;2023-12-04T05:05:20;94833.69;;;-12.20;100.00
36828;BME280;22766;48.042;11.192;2023-12-04T05:07:47;94831.94;;;-12.15;100.00
36828;BME280;22766;48.042;11.192;2023-12-04T05:10:13;94831.06;;;-12.13;100.00
36828;BME280;22766;48.042;11.192;2023-12-04T05:12:40;94831.03;;;-12.11;100.00
36828;BME280;22766;48.042;11.192;2023-12-04T05:15:07;94830.22;;;-12.10;100.00
36828;BME280;22766;48.042;11.192;2023-12-04T05:17:34;94837.63;;;-12.07;100.00
36828;BME280;22766;48.042;11.192;2023-12-04T05:20:01;94835.78;;;-11.96;100.00
36828;BME280;22766;48.042;11.192;2023-12-04T05:22:28;94840.63;;;-11.87;100.00
36828;BME280;22766;48.042;11.192;2023-12-04T05:24:55;94837.13;;;-11.77;100.00
36828;BME280;22766;48.042;11.192;2023-12-04T05:27:22;94826.22;;;-11.72;100.00
36828;BME280;22766;48.042;11.192;2023-12-04T05:29:48;94823.75;;;-11.72;100.00
36828;BME280;22766;48.042;11.192;2023-12-04T05:32:15;94828.06;;;-11.80;100.00
36828;BME280;22766;48.042;11.192;2023-12-04T05:34:42;94830.41;;;-11.72;100.00
36828;BME280;22766;48.042;11.192;2023-12-04T05:37:09;94826.00;;;-11.60;100.00
36828;BME280;22766;48.042;11.192;2023-12-04T05:39:36;94821.31;;;-11.75;100.00
36828;BME280;22766;48.042;11.192;2023-12-04T05:42:02;94810.53;;;-11.75;100.00
36828;BME280;22766;48.042;11.192;2023-12-04T05:44:30;94811.28;;;-11.72;100.00
36828;BME280;22766;48.042;11.192;2023-12-04T05:46:58;94805.25;;;-11.59;100.00
36828;BME280;22766;48.042;11.192;2023-12-04T05:49:25;94809.06;;;-11.42;100.00
36828;BME280;22766;48.042;11.192;2023-12-04T05:51:51;94803.88;;;-11.32;100.00
36828;BME280;22766;48.042;11.192;2023-12-04T05:54:18;94804.88;;;-11.40;100.00
36828;BME280;22766;48.042;11.192;2023-12-04T05:56:45;94807.38;;;-11.40;100.00
36828;BME280;22766;48.042;11.192;2023-12-04T05:59:12;94803.69;;;-11.21;100.00
36828;BME280;22766;48.042;11.192;2023-12-04T06:01:38;94816.25;;;-11.27;100.00
36828;BME280;22766;48.042;11.192;2023-12-04T06:04:05;94805.56;;;-11.32;100.00
36828;BME280;22766;48.042;11.192;2023-12-04T06:06:32;94807.41;;;-11.42;100.00
36828;BME280;22766;48.042;11.192;2023-12-04T06:08:59;94807.22;;;-11.33;100.00
36828;BME280;22766;48.042;11.192;2023-12-04T06:11:26;94798.69;;;-11.21;100.00
36828;BME280;22766;48.042;11.192;2023-12-04T06:13:52;94799.38;;;-11.15;100.00
36828;BME280;22766;48.042;11.192;2023-12-04T06:16:19;94798.41;;;-11.06;100.00
36828;BME280;22766;48.042;11.192;2023-12-04T06:18:46;94797.69;;;-11.11;100.00
36828;BME280;22766;48.042;11.192;2023-12-04T06:21:13;94796.13;;;-11.18;100.00
36828;BME280;22766;48.042;11.192;2023-12-04T06:23:40;94789.59;;;-11.24;100.00
36828;BME280;22766;48.042;11.192;2023-12-04T06:26:07;94790.97;;;-11.08;100.00
36828;BME280;22766;48.042;11.192;2023-12-04T06:28:35;94787.50;;;-11.02;100.00
36828;BME280;22766;48.042;11.192;2023-12-04T06:31:02;94777.44;;;-10.98;100.00
36828;BME280;22766;48.042;11.192;2023-12-04T06:33:29;94778.31;;;-10.99;100.00
36828;BME280;22766;48.042;11.192;2023-12-04T06:35:56;94772.53;;;-11.01;100.00
36828;BME280;22766;48.042;11.192;2023-12-04T06:38:25;94777.44;;;-10.96;100.00
36828;BME280;22766;48.042;11.192;2023-12-04T06:40:52;94772.38;;;-10.93;100.00
36828;BME280;22766;48.042;11.192;2023-12-04T06:43:19;94779.41;;;-11.12;100.00
36828;BME280;22766;48.042;11.192;2023-12-04T06:45:46;94775.38;;;-11.17;100.00
36828;BME280;22766;48.042;11.192;2023-12-04T06:48:15;94769.56;;;-11.18;100.00
36828;BME280;22766;48.042;11.192;2023-12-04T06:50:42;94772.00;;;-11.16;100.00
36828;BME280;22766;48.042;11.192;2023-12-04T06:53:08;94776.84;;;-11.07;100.00
36828;BME280;22766;48.042;11.192;2023-12-04T06:55:35;94773.97;;;-10.91;100.00
36828;BME280;22766;48.042;11.192;2023-12-04T06:58:02;94772.78;;;-10.75;100.00
36828;BME280;22766;48.042;11.192;2023-12-04T07:00:29;94770.00;;;-10.61;100.00
36828;BME280;22766;48.042;11.192;2023-12-04T07:02:56;94765.56;;;-10.50;100.00
36828;BME280;22766;48.042;11.192;2023-12-04T07:05:23;94757.13;;;-10.43;100.00
36828;BME280;22766;48.042;11.192;2023-12-04T07:07:50;94750.25;;;-10.35;100.00
36828;BME280;22766;48.042;11.192;2023-12-04T07:10:17;94745.06;;;-10.26;100.00
36828;BME280;22766;48.042;11.192;2023-12-04T07:12:44;94739.94;;;-10.21;100.00
36828;BME280;22766;48.042;11.192;2023-12-04T07:15:12;94728.25;;;-10.19;100.00
36828;BME280;22766;48.042;11.192;2023-12-04T07:17:39;94724.94;;;-10.20;100.00
36828;BME280;22766;48.042;11.192;2023-12-04T07:20:06;94727.38;;;-10.17;100.00
36828;BME280;22766;48.042;11.192;2023-12-04T07:22:33;94724.03;;;-10.17;100.00
36828;BME280;22766;48.042;11.192;2023-12-04T07:25:05;94718.91;;;-10.11;100.00
36828;BME280;22766;48.042;11.192;2023-12-04T07:27:34;94719.41;;;-10.00;100.00
36828;BME280;22766;48.042;11.192;2023-12-04T07:30:02;94723.38;;;-9.92;100.00
36828;BME280;22766;48.042;11.192;2023-12-04T07:32:29;94722.84;;;-9.72;100.00
36828;BME280;22766;48.042;11.192;2023-12-04T07:34:57;94726.06;;;-9.69;100.00
36828;BME280;22766;48.042;11.192;2023-12-04T07:37:25;94719.91;;;-9.55;100.00
36828;BME280;22766;48.042;11.192;2023-12-04T07:39:53;94718.03;;;-9.49;100.00
36828;BME280;22766;48.042;11.192;2023-12-04T07:42:19;94724.38;;;-9.37;100.00
36828;BME280;22766;48.042;11.192;2023-12-04T07:44:46;94726.78;;;-9.34;100.00
36828;BME280;22766;48.042;11.192;2023-12-04T07:47:13;94733.06;;;-9.20;100.00
36828;BME280;22766;48.042;11.192;2023-12-04T07:49:44;94725.97;;;-9.06;100.00
36828;BME280;22766;48.042;11.192;2023-12-04T07:52:11;94718.78;;;-8.87;100.00
36828;BME280;22766;48.042;11.192;2023-12-04T07:54:39;94718.84;;;-8.90;100.00
36828;BME280;22766;48.042;11.192;2023-12-04T07:57:05;94720.84;;;-8.74;100.00
36828;BME280;22766;48.042;11.192;2023-12-04T07:59:32;94718.75;;;-8.59;100.00
36828;BME280;22766;48.042;11.192;2023-12-04T08:01:59;94726.31;;;-8.35;100.00
36828;BME280;22766;48.042;11.192;2023-12-04T08:04:25;94724.34;;;-8.25;100.00
36828;BME280;22766;48.042;11.192;2023-12-04T08:06:52;94720.47;;;-8.34;100.00
36828;BME280;22766;48.042;11.192;2023-12-04T08:09:19;94710.47;;;-8.11;100.00
36828;BME280;22766;48.042;11.192;2023-12-04T08:11:46;94708.41;;;-8.23;100.00
36828;BME280;22766;48.042;11.192;2023-12-04T08:14:13;94709.31;;;-8.01;100.00
36828;BME280;22766;48.042;11.192;2023-12-04T08:16:40;94707.53;;;-7.97;100.00
36828;BME280;22766;48.042;11.192;2023-12-04T08:19:06;94714.03;;;-7.92;100.00
36828;BME280;22766;48.042;11.192;2023-12-04T08:21:33;94701.19;;;-7.58;100.00
36828;BME280;22766;48.042;11.192;2023-12-04T08:24:00;94709.22;;;-7.48;100.00
36828;BME280;22766;48.042;11.192;2023-12-04T08:26:27;94704.25;;;-7.27;100.00
36828;BME280;22766;48.042;11.192;2023-12-04T08:28:53;94699.16;;;-7.25;100.00
36828;BME280;22766;48.042;11.192;2023-12-04T08:31:20;94705.06;;;-7.26;100.00
36828;BME280;22766;48.042;11.192;2023-12-04T08:33:47;94705.63;;;-7.18;100.00
36828;BME280;22766;48.042;11.192;2023-12-04T08:36:13;94709.25;;;-7.04;100.00
36828;BME280;22766;48.042;11.192;2023-12-04T08:38:40;94710.56;;;-6.94;100.00
36828;BME280;22766;48.042;11.192;2023-12-04T08:41:07;94712.22;;;-6.71;100.00
36828;BME280;22766;48.042;11.192;2023-12-04T08:43:34;94698.47;;;-6.62;100.00
36828;BME280;22766;48.042;11.192;2023-12-04T08:46:00;94702.81;;;-6.66;100.00
36828;BME280;22766;48.042;11.192;2023-12-04T08:48:27;94697.03;;;-6.68;100.00
36828;BME280;22766;48.042;11.192;2023-12-04T08:50:54;94699.47;;;-6.45;100.00
36828;BME280;22766;48.042;11.192;2023-12-04T08:53:21;94696.25;;;-6.27;100.00
36828;BME280;22766;48.042;11.192;2023-12-04T08:55:48;94700.38;;;-6.26;100.00
36828;BME280;22766;48.042;11.192;2023-12-04T08:58:14;94702.63;;;-6.40;100.00
36828;BME280;22766;48.042;11.192;2023-12-04T09:00:41;94697.56;;;-6.18;100.00
36828;BME280;22766;48.042;11.192;2023-12-04T09:03:10;94701.16;;;-6.04;100.00
36828;BME280;22766;48.042;11.192;2023-12-04T09:05:48;94696.50;;;-5.73;100.00
36828;BME280;22766;48.042;11.192;2023-12-04T09:08:17;94693.16;;;-5.73;100.00
36828;BME280;22766;48.042;11.192;2023-12-04T09:11:02;94697.84;;;-5.84;100.00
36828;BME280;22766;48.042;11.192;2023-12-04T09:13:48;94699.19;;;-5.77;100.00
36828;BME280;22766;48.042;11.192;2023-12-04T09:16:15;94691.53;;;-5.74;100.00
36828;BME280;22766;48.042;11.192;2023-12-04T09:18:42;94696.78;;;-5.60;100.00
36828;BME280;22766;48.042;11.192;2023-12-04T09:21:09;94696.47;;;-5.52;100.00
36828;BME280;22766;48.042;11.192;2023-12-04T09:23:36;94698.97;;;-5.52;100.00
36828;BME280;22766;48.042;11.192;2023-12-04T09:26:03;94696.41;;;-5.51;100.00
36828;BME280;22766;48.042;11.192;2023-12-04T09:28:29;94697.28;;;-5.52;100.00
36828;BME280;22766;48.042;11.192;2023-12-04T09:30:56;94698.88;;;-5.49;100.00
36828;BME280;22766;48.042;11.192;2023-12-04T09:33:23;94693.56;;;-5.43;100.00
36828;BME280;22766;48.042;11.192;2023-12-04T09:35:50;94691.09;;;-5.45;100.00
36828;BME280;22766;48.042;11.192;2023-12-04T09:38:16;94694.00;;;-5.34;100.00
36828;BME280;22766;48.042;11.192;2023-12-04T09:40:43;94688.91;;;-5.14;100.00
36828;BME280;22766;48.042;11.192;2023-12-04T09:43:10;94685.22;;;-4.88;100.00
36828;BME280;22766;48.042;11.192;2023-12-04T09:45:38;94674.28;;;-4.87;100.00
36828;BME280;22766;48.042;11.192;2023-12-04T09:48:06;94684.09;;;-5.00;100.00
36828;BME280;22766;48.042;11.192;2023-12-04T09:50:36;94670.53;;;-5.16;100.00
36828;BME280;22766;48.042;11.192;2023-12-04T09:53:03;94671.03;;;-5.08;100.00
36828;BME280;22766;48.042;11.192;2023-12-04T09:55:30;94665.09;;;-5.07;100.00
36828;BME280;22766;48.042;11.192;2023-12-04T09:57:57;94664.69;;;-4.79;100.00
36828;BME280;22766;48.042;11.192;2023-12-04T10:00:25;94662.22;;;-4.62;100.00
36828;BME280;22766;48.042;11.192;2023-12-04T10:02:55;94659.78;;;-4.63;100.00
36828;BME280;22766;48.042;11.192;2023-12-04T10:05:31;94646.97;;;-4.42;100.00
36828;BME280;22766;48.042;11.192;2023-12-04T10:08:00;94644.72;;;-4.48;100.00
36828;BME280;22766;48.042;11.192;2023-12-04T10:10:27;94643.88;;;-4.47;100.00
36828;BME280;22766;48.042;11.192;2023-12-04T10:12:54;94645.78;;;-4.35;100.00
36828;BME280;22766;48.042;11.192;2023-12-04T10:15:21;94644.38;;;-4.06;100.00
36828;BME280;22766;48.042;11.192;2023-12-04T10:17:48;94639.97;;;-3.68;100.00
36828;BME280;22766;48.042;11.192;2023-12-04T10:20:15;94638.44;;;-3.71;100.00
36828;BME280;22766;48.042;11.192;2023-12-04T10:25:22;94632.09;;;-3.62;100.00
36828;BME280;22766;48.042;11.192;2023-12-04T10:27:51;94620.75;;;-3.54;100.00
36828;BME280;22766;48.042;11.192;2023-12-04T10:30:27;94617.66;;;-3.43;100.00
36828;BME280;22766;48.042;11.192;2023-12-04T10:32:55;94617.22;;;-3.51;100.00
36828;BME280;22766;48.042;11.192;2023-12-04T10:35:22;94619.88;;;-3.70;100.00
36828;BME280;22766;48.042;11.192;2023-12-04T10:37:53;94611.38;;;-3.52;100.00
36828;BME280;22766;48.042;11.192;2023-12-04T10:40:28;94608.88;;;-3.52;100.00
36828;BME280;22766;48.042;11.192;2023-12-04T10:43:16;94614.78;;;-3.86;100.00
36828;BME280;22766;48.042;11.192;2023-12-04T10:45:45;94609.06;;;-3.89;100.00
36828;BME280;22766;48.042;11.192;2023-12-04T10:48:14;94599.84;;;-4.06;100.00
36828;BME280;22766;48.042;11.192;2023-12-04T10:50:47;94593.53;;;-3.97;100.00
36828;BME280;22766;48.042;11.192;2023-12-04T10:53:15;94593.09;;;-4.05;100.00
36828;BME280;22766;48.042;11.192;2023-12-04T10:55:43;94598.84;;;-3.86;100.00
36828;BME280;22766;48.042;11.192;2023-12-04T10:58:15;94586.34;;;-3.88;100.00
36828;BME280;22766;48.042;11.192;2023-12-04T11:00:48;94579.16;;;-3.80;100.00
36828;BME280;22766;48.042;11.192;2023-12-04T11:03:20;94574.75;;;-3.92;100.00
36828;BME280;22766;48.042;11.192;2023-12-04T11:05:59;94573.88;;;-3.91;100.00
36828;BME280;22766;48.042;11.192;2023-12-04T11:08:28;94568.09;;;-4.10;100.00
36828;BME280;22766;48.042;11.192;2023-12-04T11:11:01;94553.59;;;-4.05;100.00
36828;BME280;22766;48.042;11.192;2023-12-04T11:13:31;94543.81;;;-4.11;100.00
36828;BME280;22766;48.042;11.192;2023-12-04T11:16:08;94541.97;;;-4.24;100.00
36828;BME280;22766;48.042;11.192;2023-12-04T11:18:43;94538.69;;;-4.09;100.00
36828;BME280;22766;48.042;11.192;2023-12-04T11:21:11;94528.78;;;-4.12;100.00
36828;BME280;22766;48.042;11.192;2023-12-04T11:23:39;94531.97;;;-4.26;100.00
36828;BME280;22766;48.042;11.192;2023-12-04T11:26:07;94525.66;;;-4.34;100.00
36828;BME280;22766;48.042;11.192;2023-12-04T11:28:36;94535.16;;;-4.39;100.00
36828;BME280;22766;48.042;11.192;2023-12-04T11:31:06;94549.75;;;-4.29;100.00
36828;BME280;22766;48.042;11.192;2023-12-04T11:33:39;94535.50;;;-4.13;100.00
36828;BME280;22766;48.042;11.192;2023-12-04T11:36:14;94539.16;;;-4.03;100.00
36828;BME280;22766;48.042;11.192;2023-12-04T11:38:45;94546.72;;;-4.03;100.00
36828;BME280;22766;48.042;11.192;2023-12-04T11:41:17;94540.44;;;-3.94;100.00
36828;BME280;22766;48.042;11.192;2023-12-04T11:43:51;94537.91;;;-3.94;100.00
36828;BME280;22766;48.042;11.192;2023-12-04T11:46:20;94544.00;;;-3.98;100.00
36828;BME280;22766;48.042;11.192;2023-12-04T11:48:54;94541.41;;;-4.14;100.00
36828;BME280;22766;48.042;11.192;2023-12-04T11:54:10;94541.00;;;-3.89;100.00
36828;BME280;22766;48.042;11.192;2023-12-04T11:56:37;94522.09;;;-3.49;100.00
36828;BME280;22766;48.042;11.192;2023-12-04T11:59:05;94515.75;;;-3.25;100.00
36828;BME280;22766;48.042;11.192;2023-12-04T12:01:33;94518.03;;;-3.21;100.00
36828;BME280;22766;48.042;11.192;2023-12-04T12:04:01;94508.00;;;-3.22;100.00
36828;BME280;22766;48.042;11.192;2023-12-04T12:06:29;94500.63;;;-3.41;100.00
36828;BME280;22766;48.042;11.192;2023-12-04T12:08:56;94496.38;;;-3.25;100.00
36828;BME280;22766;48.042;11.192;2023-12-04T12:11:24;94512.09;;;-3.51;100.00
36828;BME280;22766;48.042;11.192;2023-12-04T12:13:53;94516.41;;;-3.53;100.00
36828;BME280;22766;48.042;11.192;2023-12-04T12:16:20;94531.19;;;-3.78;100.00
36828;BME280;22766;48.042;11.192;2023-12-04T12:18:48;94517.34;;;-3.87;100.00
36828;BME280;22766;48.042;11.192;2023-12-04T12:21:15;94524.81;;;-3.85;100.00
36828;BME280;22766;48.042;11.192;2023-12-04T12:23:43;94527.31;;;-4.01;100.00
36828;BME280;22766;48.042;11.192;2023-12-04T12:26:10;94527.13;;;-3.81;100.00
36828;BME280;22766;48.042;11.192;2023-12-04T12:28:38;94522.41;;;-3.40;100.00
36828;BME280;22766;48.042;11.192;2023-12-04T12:31:09;94522.19;;;-3.04;100.00
36828;BME280;22766;48.042;11.192;2023-12-04T12:33:36;94519.78;;;-2.62;100.00
36828;BME280;22766;48.042;11.192;2023-12-04T12:36:42;94523.03;;;-2.16;100.00
36828;BME280;22766;48.042;11.192;2023-12-04T12:39:09;94517.75;;;-1.83;100.00
36828;BME280;22766;48.042;11.192;2023-12-04T12:41:36;94505.56;;;-1.77;100.00